createdAt,value
2017-10-06T14:39:35.825Z,958.75
2017-10-06T14:40:35.832Z,958.81
2017-10-06T14:41:35.843Z,958.79
2017-10-06T14:42:35.854Z,958.8
2017-10-06T14:43:35.871Z,958.85
2017-10-06T14:44:35.880Z,958.84
2017-10-06T14:45:35.894Z,958.88
2017-10-06T14:46:35.907Z,958.73
2017-10-06T14:47:35.936Z,958.72
2017-10-06T14:48:35.937Z,958.75
2017-10-06T14:49:36.003Z,958.74
2017-10-06T14:50:35.965Z,958.74
2017-10-06T14:51:35.982Z,958.76
2017-10-06T14:52:35.998Z,958.71
2017-10-06T14:53:36.012Z,958.71
2017-10-06T14:54:36.030Z,958.7
2017-10-06T14:55:36.044Z,958.75
2017-10-06T14:56:36.062Z,958.71
2017-10-06T14:57:36.076Z,958.64
2017-10-06T14:58:36.092Z,958.73
2017-10-06T14:59:36.113Z,958.74
2017-10-06T15:00:36.125Z,958.76
2017-10-06T15:01:36.143Z,958.74
2017-10-06T15:02:36.159Z,958.75
2017-10-06T15:03:36.179Z,958.73
2017-10-06T15:04:36.193Z,958.77
2017-10-06T15:05:36.260Z,958.75
2017-10-06T15:06:36.227Z,958.76
2017-10-06T15:07:36.245Z,958.77
2017-10-06T15:08:36.260Z,958.75
2017-10-06T15:09:36.285Z,958.82
2017-10-06T15:10:36.296Z,958.79
2017-10-06T15:11:36.311Z,958.75
2017-10-06T15:12:36.329Z,958.84
2017-10-06T15:13:36.411Z,958.83
2017-10-06T15:14:36.366Z,958.83
2017-10-06T15:15:36.382Z,958.92
2017-10-06T15:16:36.401Z,958.85
2017-10-06T15:17:36.420Z,958.91
2017-10-06T15:18:36.440Z,958.9
2017-10-06T15:19:36.453Z,958.91
2017-10-06T15:20:36.471Z,958.9
2017-10-06T15:21:36.540Z,958.91
2017-10-06T15:22:36.508Z,958.9
2017-10-06T15:23:36.526Z,958.95
2017-10-06T15:24:36.545Z,958.91
2017-10-06T15:25:36.563Z,958.93
2017-10-06T15:26:36.585Z,958.91
2017-10-06T15:27:36.600Z,958.89
2017-10-06T15:28:36.619Z,958.93
2017-10-06T15:29:36.637Z,958.89
2017-10-06T15:30:36.655Z,958.85
2017-10-06T15:31:36.674Z,958.84
2017-10-06T15:32:36.692Z,958.83
2017-10-06T15:33:36.708Z,958.83
2017-10-06T15:34:36.728Z,958.9
2017-10-06T15:35:36.747Z,958.9
2017-10-06T15:36:36.766Z,958.83
2017-10-06T15:37:36.784Z,958.88
2017-10-06T15:38:36.802Z,958.91
2017-10-06T15:39:36.819Z,958.91
2017-10-06T15:40:36.888Z,958.92
2017-10-06T15:41:36.859Z,958.97
2017-10-06T15:42:36.874Z,958.99
2017-10-06T15:43:36.893Z,958.96
2017-10-06T15:44:36.910Z,959.03
2017-10-06T15:45:36.929Z,959.01
2017-10-06T15:46:36.947Z,959.04
2017-10-06T15:47:36.966Z,958.98
2017-10-06T15:48:36.986Z,958.96
2017-10-06T15:49:37.005Z,959.01
2017-10-06T15:50:37.028Z,959.01
2017-10-06T15:51:37.042Z,959
2017-10-06T15:52:37.056Z,958.98
2017-10-06T15:53:37.077Z,958.96
2017-10-06T15:54:37.092Z,958.96
2017-10-06T15:55:37.159Z,958.93
2017-10-06T15:56:37.128Z,958.88
2017-10-06T15:57:37.151Z,958.94
2017-10-06T15:58:37.169Z,958.94
2017-10-06T15:59:37.183Z,959.01
2017-10-06T16:00:37.200Z,959.03
2017-10-06T16:01:37.219Z,958.99
2017-10-06T16:02:37.235Z,958.95
2017-10-06T16:03:37.256Z,959
2017-10-06T16:04:37.272Z,958.99
2017-10-06T16:05:37.293Z,959.02
2017-10-06T16:06:37.309Z,959.06
2017-10-06T16:07:37.326Z,959.04
2017-10-06T16:08:37.343Z,958.99
2017-10-06T16:09:37.363Z,958.98
2017-10-06T16:10:37.429Z,959.02
2017-10-06T16:11:37.399Z,959.05
2017-10-06T16:12:37.414Z,959.14
2017-10-06T16:13:37.433Z,959.09
2017-10-06T16:14:37.453Z,959.13
2017-10-06T16:15:37.465Z,959.15
2017-10-06T16:16:37.490Z,959.19
2017-10-06T16:17:37.501Z,959.12
2017-10-06T16:18:37.519Z,959.11
2017-10-06T16:19:37.537Z,959.18
2017-10-06T16:20:37.562Z,959.17
2017-10-06T16:21:37.571Z,959.17
2017-10-06T16:22:37.589Z,959.2
2017-10-06T16:23:37.608Z,959.25
2017-10-06T16:24:37.622Z,959.26
2017-10-06T16:25:37.691Z,959.24
2017-10-06T16:26:37.659Z,959.25
2017-10-06T16:27:37.675Z,959.3
2017-10-06T16:28:37.692Z,959.31
2017-10-06T16:29:37.710Z,959.31
2017-10-06T16:30:37.727Z,959.31
2017-10-06T16:31:37.744Z,959.33
2017-10-06T16:32:37.763Z,959.38
2017-10-06T16:33:37.779Z,959.34
2017-10-06T16:34:37.796Z,959.34
2017-10-06T16:35:37.814Z,959.36
2017-10-06T16:36:37.835Z,959.37
2017-10-06T16:37:37.851Z,959.42
2017-10-06T16:38:37.866Z,959.45
2017-10-06T16:39:37.883Z,959.45
2017-10-06T16:40:37.950Z,959.46
2017-10-06T16:41:37.917Z,959.47
2017-10-06T16:42:37.934Z,959.44
2017-10-06T16:43:37.952Z,959.44
2017-10-06T16:44:37.969Z,959.44
2017-10-06T16:45:38.037Z,959.48
2017-10-06T16:46:38.006Z,959.41
2017-10-06T16:47:38.021Z,959.43
2017-10-06T16:48:38.039Z,959.46
2017-10-06T16:49:38.055Z,959.42
2017-10-06T16:50:38.072Z,959.46
2017-10-06T16:51:38.091Z,959.5
2017-10-06T16:52:38.107Z,959.48
2017-10-06T16:53:38.126Z,959.52
2017-10-06T16:54:38.141Z,959.52
2017-10-06T16:55:38.159Z,959.58
2017-10-06T16:56:38.230Z,959.53
2017-10-06T16:57:38.191Z,959.54
2017-10-06T16:58:38.210Z,959.59
2017-10-06T16:59:38.235Z,959.6
2017-10-06T17:00:38.248Z,959.68
2017-10-06T17:01:38.263Z,959.72
2017-10-06T17:02:38.281Z,959.66
2017-10-06T17:03:38.298Z,959.68
2017-10-06T17:04:38.315Z,959.71
2017-10-06T17:05:38.331Z,959.71
2017-10-06T17:06:38.354Z,959.76
2017-10-06T17:07:38.373Z,959.75
2017-10-06T17:08:38.383Z,959.76
2017-10-06T17:09:38.401Z,959.79
2017-10-06T17:10:38.419Z,959.81
2017-10-06T17:11:38.486Z,959.85
2017-10-06T17:12:38.455Z,959.84
2017-10-06T17:13:38.470Z,959.9
2017-10-06T17:14:38.488Z,959.87
2017-10-06T17:15:38.513Z,959.9
2017-10-06T17:16:38.523Z,959.95
2017-10-06T17:17:38.540Z,959.93
2017-10-06T17:18:38.557Z,959.96
2017-10-06T17:19:38.574Z,959.95
2017-10-06T17:20:38.597Z,959.96
2017-10-06T17:21:38.614Z,960.02
2017-10-06T17:22:38.628Z,959.99
2017-10-06T17:23:38.649Z,960.05
2017-10-06T17:24:38.665Z,960.01
2017-10-06T17:25:38.683Z,960.01
2017-10-06T17:26:38.697Z,960.06
2017-10-06T17:27:38.716Z,960.08
2017-10-06T17:28:38.731Z,960.03
2017-10-06T17:29:38.798Z,960.05
2017-10-06T17:30:38.767Z,960.19
2017-10-06T17:31:38.783Z,960.14
2017-10-06T17:32:38.801Z,960.18
2017-10-06T17:33:38.820Z,960.21
2017-10-06T17:34:38.836Z,960.2
2017-10-06T17:35:38.853Z,960.23
2017-10-06T17:36:38.871Z,960.28
2017-10-06T17:37:38.890Z,960.26
2017-10-06T17:38:38.906Z,960.27
2017-10-06T17:39:38.924Z,960.31
2017-10-06T17:40:38.943Z,960.29
2017-10-06T17:41:38.959Z,960.42
2017-10-06T17:42:38.976Z,960.35
2017-10-06T17:43:38.993Z,960.37
2017-10-06T17:44:39.061Z,960.43
2017-10-06T17:45:39.042Z,960.41
2017-10-06T17:46:39.046Z,960.47
2017-10-06T17:47:39.064Z,960.46
2017-10-06T17:48:39.082Z,960.46
2017-10-06T17:49:39.104Z,960.47
2017-10-06T17:50:39.125Z,960.54
2017-10-06T17:51:39.135Z,960.56
2017-10-06T17:52:39.152Z,960.53
2017-10-06T17:53:39.168Z,960.57
2017-10-06T17:54:39.192Z,960.55
2017-10-06T17:55:39.205Z,960.55
2017-10-06T17:56:39.221Z,960.63
2017-10-06T17:57:39.240Z,960.66
2017-10-06T17:58:39.257Z,960.65
2017-10-06T17:59:39.274Z,960.65
2017-10-06T18:00:39.296Z,960.69
2017-10-06T18:01:39.310Z,960.71
2017-10-06T18:02:39.328Z,960.72
2017-10-06T18:03:39.345Z,960.65
2017-10-06T18:04:39.367Z,960.73
2017-10-06T18:05:39.382Z,960.74
2017-10-06T18:06:39.401Z,960.71
2017-10-06T18:07:39.414Z,960.78
2017-10-06T18:08:39.435Z,960.85
2017-10-06T18:09:39.450Z,960.83
2017-10-06T18:10:39.466Z,960.85
2017-10-06T18:11:39.487Z,960.85
2017-10-06T18:12:39.506Z,960.85
2017-10-06T18:13:39.519Z,960.89
2017-10-06T18:14:39.537Z,960.86
2017-10-06T18:15:39.553Z,960.9
2017-10-06T18:16:39.572Z,960.91
2017-10-06T18:17:39.589Z,960.86
2017-10-06T18:18:39.657Z,960.87
2017-10-06T18:19:39.625Z,960.95
2017-10-06T18:20:39.640Z,960.88
2017-10-06T18:21:39.656Z,960.95
2017-10-06T18:22:39.677Z,960.92
2017-10-06T18:23:39.695Z,960.9
2017-10-06T18:24:39.710Z,960.95
2017-10-06T18:25:39.725Z,960.91
2017-10-06T18:26:39.744Z,960.91
2017-10-06T18:27:39.766Z,960.95
2017-10-06T18:28:39.782Z,960.92
2017-10-06T18:29:39.795Z,960.91
2017-10-06T18:30:39.813Z,960.89
2017-10-06T18:31:39.830Z,960.97
2017-10-06T18:32:39.850Z,960.94
2017-10-06T18:33:39.916Z,960.88
2017-10-06T18:34:39.884Z,960.89
2017-10-06T18:35:39.905Z,960.95
2017-10-06T18:36:39.916Z,960.93
2017-10-06T18:37:39.933Z,961.02
2017-10-06T18:38:39.959Z,961
2017-10-06T18:39:39.970Z,960.98
2017-10-06T18:40:39.987Z,961.03
2017-10-06T18:41:40.007Z,961.03
2017-10-06T18:42:40.024Z,961.06
2017-10-06T18:43:40.035Z,961.06
2017-10-06T18:44:40.053Z,961.11
2017-10-06T18:45:40.072Z,961.12
2017-10-06T18:46:40.088Z,961.14
2017-10-06T18:47:40.105Z,961.16
2017-10-06T18:48:40.175Z,961.16
2017-10-06T18:49:40.140Z,961.14
2017-10-06T18:50:40.156Z,961.13
2017-10-06T18:51:40.175Z,961.15
2017-10-06T18:52:40.195Z,961.22
2017-10-06T18:53:40.207Z,961.17
2017-10-06T18:54:40.224Z,961.17
2017-10-06T18:55:40.242Z,961.17
2017-10-06T18:56:40.258Z,961.22
2017-10-06T18:57:40.276Z,961.17
2017-10-06T18:58:40.298Z,961.22
2017-10-06T18:59:40.310Z,961.21
2017-10-06T19:00:40.327Z,961.2
2017-10-06T19:01:40.344Z,961.23
2017-10-06T19:02:40.362Z,961.23
2017-10-06T19:03:40.429Z,961.22
2017-10-06T19:04:40.397Z,961.26
2017-10-06T19:05:40.412Z,961.26
2017-10-06T19:06:40.430Z,961.3
2017-10-06T19:07:40.477Z,961.28
2017-10-06T19:08:40.465Z,961.27
2017-10-06T19:09:40.481Z,961.31
2017-10-06T19:10:40.498Z,961.3
2017-10-06T19:11:40.514Z,961.35
2017-10-06T19:12:40.532Z,961.38
2017-10-06T19:13:40.550Z,961.33
2017-10-06T19:14:40.570Z,961.3
2017-10-06T19:15:40.590Z,961.34
2017-10-06T19:16:40.599Z,961.28
2017-10-06T19:17:40.616Z,961.28
2017-10-06T19:18:40.634Z,961.3
2017-10-06T19:19:41.052Z,961.33
2017-10-06T19:20:40.671Z,961.34
2017-10-06T19:21:40.686Z,961.38
2017-10-06T19:22:40.704Z,961.41
2017-10-06T19:23:40.723Z,961.35
2017-10-06T19:24:40.738Z,961.37
2017-10-06T19:25:40.757Z,961.41
2017-10-06T19:26:40.775Z,961.37
2017-10-06T19:27:40.789Z,961.38
2017-10-06T19:28:40.808Z,961.37
2017-10-06T19:29:40.826Z,961.33
2017-10-06T19:30:40.850Z,961.31
2017-10-06T19:31:40.859Z,961.29
2017-10-06T19:32:40.927Z,961.33
2017-10-06T19:33:40.894Z,961.32
2017-10-06T19:34:40.961Z,961.31
2017-10-06T19:35:40.929Z,961.38
2017-10-06T19:36:40.951Z,961.32
2017-10-06T19:37:40.964Z,961.29
2017-10-06T19:38:40.980Z,961.44
2017-10-06T19:39:40.998Z,961.37
2017-10-06T19:40:41.025Z,961.39
2017-10-06T19:41:41.032Z,961.4
2017-10-06T19:42:41.052Z,961.45
2017-10-06T19:43:41.076Z,961.43
2017-10-06T19:44:41.084Z,961.47
2017-10-06T19:45:41.101Z,961.46
2017-10-06T19:46:41.119Z,961.54
2017-10-06T19:47:41.137Z,961.52
2017-10-06T19:48:41.158Z,961.5
2017-10-06T19:49:41.225Z,961.45
2017-10-06T19:50:41.186Z,961.47
2017-10-06T19:51:41.210Z,961.46
2017-10-06T19:52:41.222Z,961.49
2017-10-06T19:53:41.239Z,961.48
2017-10-06T19:54:41.256Z,961.53
2017-10-06T19:55:41.273Z,961.54
2017-10-06T19:56:41.290Z,961.51
2017-10-06T19:57:41.307Z,961.65
2017-10-06T19:58:41.324Z,961.58
2017-10-06T19:59:41.341Z,961.55
2017-10-06T20:00:41.357Z,961.59
2017-10-06T20:01:41.376Z,961.62
2017-10-06T20:02:41.392Z,961.63
2017-10-06T20:03:41.409Z,961.62
2017-10-06T20:04:41.425Z,961.65
2017-10-06T20:05:41.511Z,961.68
2017-10-06T20:06:41.462Z,961.71
2017-10-06T20:07:41.477Z,961.71
2017-10-06T20:08:41.493Z,961.78
2017-10-06T20:09:41.514Z,961.79
2017-10-06T20:10:41.528Z,961.75
2017-10-06T20:11:41.546Z,961.74
2017-10-06T20:12:41.883Z,961.74
2017-10-06T20:13:41.586Z,961.72
2017-10-06T20:14:41.595Z,961.72
2017-10-06T20:15:41.610Z,961.72
2017-10-06T20:16:41.629Z,961.72
2017-10-06T20:17:41.695Z,961.74
2017-10-06T20:18:41.665Z,961.8
2017-10-06T20:19:41.679Z,961.74
2017-10-06T20:20:41.745Z,961.72
2017-10-06T20:21:41.713Z,961.76
2017-10-06T20:22:41.729Z,961.72
2017-10-06T20:23:41.749Z,961.71
2017-10-06T20:24:41.769Z,961.7
2017-10-06T20:25:41.781Z,961.76
2017-10-06T20:26:41.801Z,961.77
2017-10-06T20:27:41.814Z,961.77
2017-10-06T20:28:41.831Z,961.83
2017-10-06T20:29:41.847Z,961.87
2017-10-06T20:30:41.866Z,961.87
2017-10-06T20:31:41.882Z,961.83
2017-10-06T20:32:41.899Z,961.83
2017-10-06T20:33:41.917Z,961.83
2017-10-06T20:34:41.934Z,961.88
2017-10-06T20:35:42.000Z,961.88
2017-10-06T20:36:41.967Z,961.84
2017-10-06T20:37:41.984Z,961.82
2017-10-06T20:38:42.003Z,961.83
2017-10-06T20:39:42.019Z,961.86
2017-10-06T20:40:42.036Z,961.84
2017-10-06T20:41:42.056Z,961.84
2017-10-06T20:42:42.075Z,961.88
2017-10-06T20:43:42.092Z,961.82
2017-10-06T20:44:42.103Z,961.87
2017-10-06T20:45:42.121Z,961.96
2017-10-06T20:46:42.140Z,961.95
2017-10-06T20:47:42.156Z,961.91
2017-10-06T20:48:42.171Z,961.94
2017-10-06T20:49:42.188Z,961.98
2017-10-06T20:50:42.218Z,961.95
2017-10-06T20:51:42.272Z,961.96
2017-10-06T20:52:42.240Z,961.97
2017-10-06T20:53:42.258Z,961.99
2017-10-06T20:54:42.276Z,961.98
2017-10-06T20:55:42.293Z,961.96
2017-10-06T20:56:42.310Z,961.96
2017-10-06T20:57:42.327Z,962.01
2017-10-06T20:58:42.345Z,962.01
2017-10-06T20:59:42.361Z,962.05
2017-10-06T21:00:42.379Z,962.02
2017-10-06T21:01:42.395Z,962.02
2017-10-06T21:02:42.413Z,961.97
2017-10-06T21:03:42.431Z,962.05
2017-10-06T21:04:42.448Z,962.11
2017-10-06T21:05:42.464Z,962.04
2017-10-06T21:06:42.537Z,962.09
2017-10-06T21:07:42.501Z,962.02
2017-10-06T21:08:42.516Z,962.08
2017-10-06T21:09:42.535Z,962.07
2017-10-06T21:10:42.548Z,962.14
2017-10-06T21:11:42.568Z,962.04
2017-10-06T21:12:42.584Z,962.05
2017-10-06T21:13:42.606Z,962.11
2017-10-06T21:14:42.621Z,962.09
2017-10-06T21:15:42.637Z,962.11
2017-10-06T21:16:42.654Z,962.1
2017-10-06T21:17:42.670Z,962.14
2017-10-06T21:18:42.695Z,962.09
2017-10-06T21:19:42.704Z,962.08
2017-10-06T21:20:42.723Z,962.1
2017-10-06T21:21:42.789Z,962.05
2017-10-06T21:22:42.761Z,962.14
2017-10-06T21:23:42.772Z,962.19
2017-10-06T21:24:42.792Z,962.24
2017-10-06T21:25:42.807Z,962.19
2017-10-06T21:26:42.823Z,962.19
2017-10-06T21:27:42.852Z,962.19
2017-10-06T21:28:42.857Z,962.16
2017-10-06T21:29:42.875Z,962.16
2017-10-06T21:30:42.893Z,962.2
2017-10-06T21:31:42.910Z,962.23
2017-10-06T21:32:42.926Z,962.18
2017-10-06T21:33:42.947Z,962.24
2017-10-06T21:34:42.962Z,962.22
2017-10-06T21:35:42.982Z,962.2
2017-10-06T21:36:43.046Z,962.18
2017-10-06T21:37:43.015Z,962.2
2017-10-06T21:38:43.030Z,962.25
2017-10-06T21:39:43.052Z,962.2
2017-10-06T21:40:43.064Z,962.21
2017-10-06T21:41:43.085Z,962.23
2017-10-06T21:42:43.098Z,962.24
2017-10-06T21:43:43.121Z,962.2
2017-10-06T21:44:43.134Z,962.26
2017-10-06T21:45:43.151Z,962.26
2017-10-06T21:46:43.168Z,962.22
2017-10-06T21:47:43.387Z,962.27
2017-10-06T21:48:43.202Z,962.23
2017-10-06T21:49:43.225Z,962.28
2017-10-06T21:50:43.237Z,962.26
2017-10-06T21:51:43.254Z,962.25
2017-10-06T21:52:43.276Z,962.22
2017-10-06T21:53:43.288Z,962.2
2017-10-06T21:54:43.307Z,962.25
2017-10-06T21:55:43.323Z,962.27
2017-10-06T21:56:43.341Z,962.26
2017-10-06T21:57:43.357Z,962.2
2017-10-06T21:58:43.375Z,962.22
2017-10-06T21:59:43.392Z,962.28
2017-10-06T22:00:43.411Z,962.22
2017-10-06T22:01:43.425Z,962.28
2017-10-06T22:02:43.443Z,962.23
2017-10-06T22:03:43.462Z,962.25
2017-10-06T22:04:43.489Z,962.28
2017-10-06T22:05:43.503Z,962.3
2017-10-06T22:06:43.512Z,962.3
2017-10-06T22:07:43.580Z,962.28
2017-10-06T22:08:43.552Z,962.29
2017-10-06T22:09:43.564Z,962.32
2017-10-06T22:10:43.584Z,962.26
2017-10-06T22:11:43.602Z,962.35
2017-10-06T22:12:43.616Z,962.29
2017-10-06T22:13:43.633Z,962.33
2017-10-06T22:14:43.651Z,962.3
2017-10-06T22:15:43.668Z,962.37
2017-10-06T22:16:43.686Z,962.31
2017-10-06T22:17:43.701Z,962.37
2017-10-06T22:18:43.726Z,962.37
2017-10-06T22:19:43.736Z,962.38
2017-10-06T22:20:43.754Z,962.44
2017-10-06T22:21:43.770Z,962.37
2017-10-06T22:22:43.839Z,962.38
2017-10-06T22:23:43.807Z,962.4
2017-10-06T22:24:43.822Z,962.41
2017-10-06T22:25:43.841Z,962.4
2017-10-06T22:26:43.858Z,962.42
2017-10-06T22:27:43.874Z,962.42
2017-10-06T22:28:43.892Z,962.41
2017-10-06T22:29:43.909Z,962.44
2017-10-06T22:30:43.928Z,962.42
2017-10-06T22:31:43.943Z,962.42
2017-10-06T22:32:43.960Z,962.45
2017-10-06T22:33:43.978Z,962.35
2017-10-06T22:34:43.996Z,962.49
2017-10-06T22:35:44.021Z,962.37
2017-10-06T22:36:44.032Z,962.36
2017-10-06T22:37:44.049Z,962.37
2017-10-06T22:38:44.063Z,962.46
2017-10-06T22:39:44.083Z,962.39
2017-10-06T22:40:44.153Z,962.42
2017-10-06T22:41:44.125Z,962.35
2017-10-06T22:42:44.135Z,962.35
2017-10-06T22:43:44.153Z,962.34
2017-10-06T22:44:44.167Z,962.36
2017-10-06T22:45:44.187Z,962.34
2017-10-06T22:46:44.204Z,962.39
2017-10-06T22:47:44.219Z,962.34
2017-10-06T22:48:44.236Z,962.41
2017-10-06T22:49:44.254Z,962.37
2017-10-06T22:50:44.275Z,962.46
2017-10-06T22:51:44.288Z,962.43
2017-10-06T22:52:44.306Z,962.52
2017-10-06T22:53:44.322Z,962.47
2017-10-06T22:54:44.340Z,962.51
2017-10-06T22:55:44.356Z,962.53
2017-10-06T22:56:44.422Z,962.49
2017-10-06T22:57:44.397Z,962.48
2017-10-06T22:58:44.409Z,962.47
2017-10-06T22:59:44.426Z,962.51
2017-10-06T23:00:44.441Z,962.48
2017-10-06T23:01:44.461Z,962.46
2017-10-06T23:02:44.477Z,962.48
2017-10-06T23:03:44.492Z,962.54
2017-10-06T23:04:44.513Z,962.49
2017-10-06T23:05:44.529Z,962.45
2017-10-06T23:06:44.545Z,962.48
2017-10-06T23:07:44.569Z,962.52
2017-10-06T23:08:44.581Z,962.44
2017-10-06T23:09:44.600Z,962.49
2017-10-06T23:10:44.614Z,962.53
2017-10-06T23:11:44.692Z,962.56
2017-10-06T23:12:44.653Z,962.52
2017-10-06T23:13:44.666Z,962.54
2017-10-06T23:14:44.684Z,962.58
2017-10-06T23:15:44.702Z,962.63
2017-10-06T23:16:44.718Z,962.66
2017-10-06T23:17:44.738Z,962.63
2017-10-06T23:18:44.757Z,962.66
2017-10-06T23:19:44.771Z,962.66
2017-10-06T23:20:44.789Z,962.62
2017-10-06T23:21:44.806Z,962.6
2017-10-06T23:22:44.823Z,962.62
2017-10-06T23:23:44.840Z,962.63
2017-10-06T23:24:44.856Z,962.7
2017-10-06T23:25:44.874Z,962.75
2017-10-06T23:26:44.942Z,962.62
2017-10-06T23:27:44.909Z,962.68
2017-10-06T23:28:44.927Z,962.72
2017-10-06T23:29:44.944Z,962.67
2017-10-06T23:30:44.962Z,962.68
2017-10-06T23:31:44.978Z,962.68
2017-10-06T23:32:44.994Z,962.78
2017-10-06T23:33:45.013Z,962.73
2017-10-06T23:34:45.033Z,962.67
2017-10-06T23:35:45.049Z,962.71
2017-10-06T23:36:45.068Z,962.72
2017-10-06T23:37:45.086Z,962.71
2017-10-06T23:38:45.105Z,962.77
2017-10-06T23:39:45.123Z,962.76
2017-10-06T23:40:45.135Z,962.76
2017-10-06T23:41:45.165Z,962.79
2017-10-06T23:42:45.172Z,962.8
2017-10-06T23:43:45.186Z,962.77
2017-10-06T23:44:45.205Z,962.8
2017-10-06T23:45:45.220Z,962.86
2017-10-06T23:46:45.237Z,962.83
2017-10-06T23:47:45.255Z,962.89
2017-10-06T23:48:45.273Z,962.83
2017-10-06T23:49:45.289Z,962.9
2017-10-06T23:50:45.305Z,962.86
2017-10-06T23:51:45.324Z,962.87
2017-10-06T23:52:45.341Z,962.9
2017-10-06T23:53:45.359Z,962.94
2017-10-06T23:54:45.377Z,962.95
2017-10-06T23:55:45.396Z,962.97
2017-10-06T23:56:45.409Z,963
2017-10-06T23:57:45.427Z,962.99
2017-10-06T23:58:45.443Z,963
2017-10-06T23:59:45.459Z,963.03
